createdAt,value
2023-05-21T00:02:06.743Z,100.00
2023-05-21T00:04:34.621Z,100.00
2023-05-21T00:07:02.527Z,100.00
2023-05-21T00:09:30.720Z,100.00
2023-05-21T00:11:58.596Z,100.00
2023-05-21T00:14:26.959Z,100.00
2023-05-21T00:16:54.920Z,100.00
2023-05-21T00:19:23.010Z,100.00
2023-05-21T00:21:51.085Z,100.00
2023-05-21T00:24:19.246Z,100.00
2023-05-21T00:26:47.126Z,100.00
2023-05-21T00:29:15.040Z,100.00
2023-05-21T00:31:43.045Z,100.00
2023-05-21T00:34:11.094Z,100.00
2023-05-21T00:36:40.579Z,100.00
2023-05-21T00:39:09.124Z,100.00
2023-05-21T00:41:38.142Z,100.00
2023-05-21T00:44:07.329Z,100.00
2023-05-21T00:46:35.756Z,100.00
2023-05-21T00:49:04.230Z,100.00
2023-05-21T00:51:32.925Z,100.00
2023-05-21T00:54:01.260Z,100.00
2023-05-21T00:56:29.546Z,100.00
2023-05-21T00:58:58.742Z,100.00
2023-05-21T01:01:27.916Z,100.00
2023-05-21T01:03:58.078Z,100.00
2023-05-21T01:06:26.237Z,100.00
2023-05-21T01:08:58.286Z,100.00
2023-05-21T01:11:40.325Z,100.00
2023-05-21T01:14:10.426Z,100.00
2023-05-21T01:16:41.139Z,100.00
2023-05-21T01:19:13.858Z,100.00
2023-05-21T01:21:45.458Z,100.00
2023-05-21T01:24:15.952Z,100.00
2023-05-21T01:26:44.473Z,100.00
2023-05-21T01:29:14.552Z,100.00
2023-05-21T01:32:20.979Z,100.00
2023-05-21T01:34:56.057Z,100.00
2023-05-21T01:37:31.878Z,100.00
2023-05-21T01:40:46.407Z,100.00
2023-05-21T01:43:15.741Z,100.00
2023-05-21T01:45:45.540Z,100.00
2023-05-21T01:48:15.080Z,100.00
2023-05-21T01:50:44.491Z,100.00
2023-05-21T01:53:12.487Z,100.00
2023-05-21T01:55:42.194Z,100.00
2023-05-21T01:58:10.370Z,100.00
2023-05-21T02:00:40.187Z,100.00
2023-05-21T02:03:09.040Z,100.00
2023-05-21T02:05:37.403Z,100.00
2023-05-21T02:08:05.699Z,100.00
2023-05-21T02:10:33.738Z,100.00
2023-05-21T02:13:01.770Z,100.00
2023-05-21T02:15:30.650Z,100.00
2023-05-21T02:17:58.676Z,100.00
2023-05-21T02:20:26.694Z,100.00
2023-05-21T02:22:54.866Z,100.00
2023-05-21T02:25:22.870Z,100.00
2023-05-21T02:27:53.814Z,100.00
2023-05-21T02:30:21.842Z,100.00
2023-05-21T02:32:50.133Z,100.00
2023-05-21T02:35:18.216Z,100.00
2023-05-21T02:37:46.222Z,100.00
2023-05-21T02:40:16.305Z,100.00
2023-05-21T02:42:44.299Z,100.00
2023-05-21T02:45:16.943Z,100.00
2023-05-21T02:47:45.176Z,100.00
2023-05-21T02:50:14.241Z,100.00
2023-05-21T02:52:47.654Z,100.00
2023-05-21T02:55:15.680Z,100.00
2023-05-21T02:57:43.704Z,100.00
2023-05-21T03:00:12.321Z,100.00
2023-05-21T03:02:41.465Z,100.00
2023-05-21T03:05:09.962Z,100.00
2023-05-21T03:07:37.936Z,100.00
2023-05-21T03:10:06.699Z,100.00
2023-05-21T03:12:34.843Z,100.00
2023-05-21T03:15:02.896Z,100.00
2023-05-21T03:17:32.600Z,100.00
2023-05-21T03:20:00.613Z,100.00
2023-05-21T03:22:28.636Z,100.00
2023-05-21T03:24:56.516Z,100.00
2023-05-21T03:27:24.898Z,100.00
2023-05-21T03:29:55.206Z,100.00
2023-05-21T03:32:23.646Z,100.00
2023-05-21T03:34:52.312Z,100.00
2023-05-21T03:37:20.210Z,100.00
2023-05-21T03:39:48.562Z,100.00
2023-05-21T03:42:16.684Z,100.00
2023-05-21T03:44:49.690Z,100.00
2023-05-21T03:47:37.818Z,100.00
2023-05-21T03:50:09.582Z,100.00
2023-05-21T03:52:38.078Z,100.00
2023-05-21T03:55:06.930Z,100.00
2023-05-21T03:57:35.110Z,100.00
2023-05-21T04:00:04.405Z,100.00
2023-05-21T04:02:32.908Z,100.00
2023-05-21T04:05:00.962Z,100.00
2023-05-21T04:07:30.323Z,100.00
2023-05-21T04:09:58.264Z,100.00
2023-05-21T04:12:26.379Z,100.00
2023-05-21T04:14:54.453Z,100.00
2023-05-21T04:17:22.401Z,100.00
2023-05-21T04:19:51.168Z,100.00
2023-05-21T04:22:19.554Z,100.00
2023-05-21T04:24:48.970Z,100.00
2023-05-21T04:27:24.473Z,100.00
2023-05-21T04:29:54.865Z,100.00
2023-05-21T04:32:25.049Z,100.00
2023-05-21T04:34:52.958Z,100.00
2023-05-21T04:37:20.856Z,100.00
2023-05-21T04:39:48.825Z,100.00
2023-05-21T04:42:17.115Z,100.00
2023-05-21T04:44:45.247Z,100.00
2023-05-21T04:47:15.083Z,100.00
2023-05-21T04:49:43.580Z,100.00
2023-05-21T04:52:11.582Z,100.00
2023-05-21T04:54:42.233Z,100.00
2023-05-21T04:57:10.139Z,100.00
2023-05-21T04:59:39.647Z,100.00
2023-05-21T05:02:07.586Z,100.00
2023-05-21T05:04:35.636Z,100.00
2023-05-21T05:07:03.536Z,100.00
2023-05-21T05:09:32.205Z,100.00
2023-05-21T05:12:00.417Z,100.00
2023-05-21T05:14:29.843Z,100.00
2023-05-21T05:17:01.262Z,100.00
2023-05-21T05:19:29.859Z,100.00
2023-05-21T05:21:58.153Z,100.00
2023-05-21T05:24:26.460Z,99.99
2023-05-21T05:26:54.578Z,100.00
2023-05-21T05:29:22.878Z,100.00
2023-05-21T05:31:51.111Z,100.00
2023-05-21T05:34:20.208Z,98.75
2023-05-21T05:36:49.537Z,98.22
2023-05-21T05:39:17.511Z,99.54
2023-05-21T05:41:47.066Z,98.93
2023-05-21T05:44:15.344Z,100.00
2023-05-21T05:46:44.889Z,99.39
2023-05-21T05:49:14.103Z,98.84
2023-05-21T05:51:42.453Z,97.66
2023-05-21T05:54:10.851Z,98.81
2023-05-21T05:56:39.363Z,100.00
2023-05-21T05:59:07.433Z,96.95
2023-05-21T06:01:38.550Z,96.61
2023-05-21T06:04:07.994Z,98.68
2023-05-21T06:06:37.166Z,99.13
2023-05-21T06:09:05.291Z,98.21
2023-05-21T06:11:33.404Z,99.96
2023-05-21T06:14:02.155Z,100.00
2023-05-21T06:16:32.957Z,100.00
2023-05-21T06:19:01.404Z,100.00
2023-05-21T06:21:29.697Z,100.00
2023-05-21T06:23:58.284Z,97.41
2023-05-21T06:26:26.592Z,100.00
2023-05-21T06:28:54.990Z,98.21
2023-05-21T06:31:23.202Z,100.00
2023-05-21T06:33:51.896Z,100.00
2023-05-21T06:36:43.644Z,100.00
2023-05-21T06:39:19.087Z,100.00
2023-05-21T06:41:52.465Z,99.14
2023-05-21T06:44:45.019Z,100.00
2023-05-21T06:47:38.204Z,99.32
2023-05-21T06:50:06.727Z,100.00
2023-05-21T06:52:34.816Z,100.00
2023-05-21T06:55:04.025Z,100.00
2023-05-21T06:57:49.713Z,98.23
2023-05-21T07:00:17.993Z,97.63
2023-05-21T07:02:46.156Z,97.25
2023-05-21T07:05:15.231Z,99.44
2023-05-21T07:07:43.280Z,96.42
2023-05-21T07:10:11.518Z,95.07
2023-05-21T07:12:41.129Z,93.35
2023-05-21T07:15:09.775Z,95.51
2023-05-21T07:17:37.922Z,95.10
2023-05-21T07:20:10.098Z,96.57
2023-05-21T07:22:39.990Z,90.79
2023-05-21T07:25:09.806Z,88.57
2023-05-21T07:27:37.930Z,83.87
2023-05-21T07:30:06.524Z,84.71
2023-05-21T07:32:34.680Z,86.29
2023-05-21T07:35:02.617Z,85.38
2023-05-21T07:37:31.740Z,82.43
2023-05-21T07:40:00.291Z,81.32
2023-05-21T07:42:28.254Z,77.15
2023-05-21T07:44:57.896Z,78.47
2023-05-21T07:47:27.428Z,77.44
2023-05-21T07:49:55.568Z,77.40
2023-05-21T07:52:23.605Z,73.41
2023-05-21T07:54:51.818Z,73.34
2023-05-21T07:57:19.893Z,75.15
2023-05-21T08:00:14.405Z,72.27
2023-05-21T08:02:52.812Z,73.55
2023-05-21T08:05:23.616Z,74.87
2023-05-21T08:07:51.913Z,74.15
2023-05-21T08:10:20.789Z,72.92
2023-05-21T08:12:53.377Z,72.47
2023-05-21T08:15:22.722Z,71.56
2023-05-21T08:17:50.868Z,72.48
2023-05-21T08:20:20.684Z,73.51
2023-05-21T08:22:50.135Z,71.78
2023-05-21T08:25:18.454Z,69.42
2023-05-21T08:27:48.386Z,69.02
2023-05-21T08:30:18.036Z,70.69
2023-05-21T08:32:46.095Z,73.16
2023-05-21T08:35:15.766Z,69.83
2023-05-21T08:38:07.515Z,61.57
2023-05-21T08:40:55.234Z,67.28
2023-05-21T08:43:24.373Z,61.43
2023-05-21T08:45:59.213Z,62.11
2023-05-21T08:48:32.777Z,56.17
2023-05-21T08:51:03.576Z,57.19
2023-05-21T08:53:35.276Z,55.27
2023-05-21T08:56:07.224Z,56.39
2023-05-21T08:58:51.487Z,54.27
2023-05-21T09:01:25.645Z,53.46
2023-05-21T09:04:21.349Z,51.69
2023-05-21T09:06:55.087Z,53.16
2023-05-21T09:10:03.558Z,50.42
2023-05-21T09:12:32.544Z,48.78
2023-05-21T09:15:01.962Z,50.59
2023-05-21T09:17:36.724Z,50.19
2023-05-21T09:20:26.650Z,48.80
2023-05-21T09:23:04.137Z,48.69
2023-05-21T09:25:33.191Z,46.06
2023-05-21T09:28:16.452Z,48.46
2023-05-21T09:30:48.740Z,43.71
2023-05-21T09:33:29.885Z,44.98
2023-05-21T09:35:58.196Z,47.75
2023-05-21T09:38:28.061Z,47.36
2023-05-21T09:40:59.280Z,43.54
2023-05-21T09:43:28.735Z,47.41
2023-05-21T09:45:59.732Z,46.25
2023-05-21T09:48:36.782Z,47.15
2023-05-21T09:51:14.833Z,47.61
2023-05-21T09:53:45.292Z,45.68
2023-05-21T09:56:13.408Z,43.51
2023-05-21T09:58:41.955Z,46.92
2023-05-21T10:01:11.637Z,45.99
2023-05-21T10:03:43.213Z,47.61
2023-05-21T10:06:11.973Z,45.33
2023-05-21T10:08:45.259Z,47.22
2023-05-21T10:11:14.560Z,48.06
2023-05-21T10:13:49.221Z,46.46
2023-05-21T10:16:18.460Z,44.63
2023-05-21T10:18:49.383Z,45.10
2023-05-21T10:21:18.666Z,47.11
2023-05-21T10:23:46.957Z,45.91
2023-05-21T10:26:16.451Z,44.96
2023-05-21T10:28:45.642Z,45.15
2023-05-21T10:31:14.042Z,45.32
2023-05-21T10:33:43.548Z,44.55
2023-05-21T10:36:12.306Z,44.38
2023-05-21T10:38:43.664Z,45.71
2023-05-21T10:41:12.938Z,44.54
2023-05-21T10:44:13.405Z,44.51
2023-05-21T10:47:15.399Z,45.78
2023-05-21T10:50:07.865Z,44.24
2023-05-21T10:52:57.410Z,44.01
2023-05-21T10:55:43.869Z,44.02
2023-05-21T10:58:49.540Z,44.42
2023-05-21T11:01:19.674Z,44.09
2023-05-21T11:03:48.989Z,41.26
2023-05-21T11:06:25.871Z,44.25
2023-05-21T11:09:17.658Z,41.96
2023-05-21T11:11:52.025Z,42.45
2023-05-21T11:14:39.679Z,42.45
2023-05-21T11:17:17.394Z,39.45
2023-05-21T11:19:49.955Z,42.06
2023-05-21T11:22:28.136Z,41.68
2023-05-21T11:25:02.192Z,39.35
2023-05-21T11:27:34.874Z,41.05
2023-05-21T11:30:11.152Z,40.66
2023-05-21T11:33:08.575Z,40.52
2023-05-21T11:35:58.925Z,40.36
2023-05-21T11:38:31.945Z,40.63
2023-05-21T11:41:06.376Z,39.55
2023-05-21T11:43:41.120Z,40.54
2023-05-21T11:46:12.425Z,39.30
2023-05-21T11:48:42.798Z,42.07
2023-05-21T11:51:11.001Z,39.64
2023-05-21T11:53:39.536Z,38.67
2023-05-21T11:56:10.152Z,40.24
2023-05-21T11:58:43.138Z,41.78
2023-05-21T12:01:31.389Z,40.23
2023-05-21T12:03:59.404Z,42.47
2023-05-21T12:06:27.584Z,39.62
2023-05-21T12:08:59.378Z,39.89
2023-05-21T12:11:27.923Z,40.99
2023-05-21T12:13:57.414Z,40.52
2023-05-21T12:16:27.188Z,41.45
2023-05-21T12:18:56.283Z,39.93
2023-05-21T12:21:24.530Z,40.03
2023-05-21T12:23:52.427Z,40.41
2023-05-21T12:26:22.436Z,41.78
2023-05-21T12:28:50.670Z,40.09
2023-05-21T12:31:18.740Z,41.23
2023-05-21T12:33:51.560Z,40.28
2023-05-21T12:36:30.285Z,39.10
2023-05-21T12:38:58.826Z,39.51
2023-05-21T12:41:26.966Z,40.50
2023-05-21T12:43:54.836Z,40.27
2023-05-21T12:46:23.681Z,40.06
2023-05-21T12:48:56.247Z,39.76
2023-05-21T12:51:24.265Z,39.70
2023-05-21T12:53:52.240Z,39.09
2023-05-21T12:56:20.243Z,39.05
2023-05-21T12:58:50.688Z,39.23
2023-05-21T13:01:22.055Z,38.54
2023-05-21T13:03:50.136Z,38.02
2023-05-21T13:06:18.110Z,38.92
2023-05-21T13:08:46.099Z,39.27
2023-05-21T13:11:13.998Z,38.94
2023-05-21T13:13:41.974Z,38.08
2023-05-21T13:16:10.045Z,39.88
2023-05-21T13:18:38.132Z,37.92
2023-05-21T13:21:06.432Z,37.86
2023-05-21T13:23:34.458Z,38.79
2023-05-21T13:26:02.481Z,38.41
2023-05-21T13:28:30.653Z,38.24
2023-05-21T13:30:58.596Z,39.55
2023-05-21T13:33:29.908Z,40.37
2023-05-21T13:35:58.620Z,40.77
2023-05-21T13:38:26.579Z,38.80
2023-05-21T13:40:55.231Z,39.40
2023-05-21T13:43:23.704Z,36.25
2023-05-21T13:45:53.384Z,39.44
2023-05-21T13:48:22.005Z,35.75
2023-05-21T13:50:52.588Z,38.31
2023-05-21T13:53:23.850Z,37.57
2023-05-21T13:55:53.646Z,38.92
2023-05-21T13:58:22.932Z,38.80
2023-05-21T14:00:52.791Z,37.23
2023-05-21T14:03:22.944Z,36.84
2023-05-21T14:05:54.662Z,37.17
2023-05-21T14:08:27.963Z,35.57
2023-05-21T14:10:58.386Z,35.71
2023-05-21T14:13:27.926Z,37.11
2023-05-21T14:15:58.100Z,36.76
2023-05-21T14:18:28.106Z,37.29
2023-05-21T14:20:57.338Z,39.02
2023-05-21T14:23:26.663Z,38.94
2023-05-21T14:25:54.540Z,39.46
2023-05-21T14:28:23.882Z,36.44
2023-05-21T14:30:55.947Z,35.21
2023-05-21T14:33:26.151Z,36.04
2023-05-21T14:35:58.798Z,34.93
2023-05-21T14:38:28.770Z,35.91
2023-05-21T14:40:59.325Z,35.29
2023-05-21T14:43:29.664Z,34.74
2023-05-21T14:45:59.614Z,35.30
2023-05-21T14:48:30.237Z,35.21
2023-05-21T14:51:00.957Z,34.33
2023-05-21T14:53:34.367Z,33.31
2023-05-21T14:56:05.778Z,34.91
2023-05-21T14:58:36.422Z,34.48
2023-05-21T15:01:05.284Z,34.86
2023-05-21T15:03:33.617Z,35.24
2023-05-21T15:06:01.772Z,34.88
2023-05-21T15:08:30.407Z,34.44
2023-05-21T15:10:58.879Z,35.35
2023-05-21T15:13:27.621Z,34.53
2023-05-21T15:16:00.662Z,35.42
2023-05-21T15:18:30.897Z,34.89
2023-05-21T15:20:59.691Z,34.62
2023-05-21T15:23:27.829Z,36.01
2023-05-21T15:25:56.521Z,35.33
2023-05-21T15:28:25.465Z,36.93
2023-05-21T15:30:53.520Z,36.56
2023-05-21T15:33:21.788Z,37.08
2023-05-21T15:35:49.716Z,37.78
2023-05-21T15:38:17.825Z,37.76
2023-05-21T15:40:45.866Z,37.51
2023-05-21T15:43:13.812Z,37.24
2023-05-21T15:45:42.124Z,36.45
2023-05-21T15:48:10.164Z,37.82
2023-05-21T15:50:38.508Z,37.81
2023-05-21T15:53:06.593Z,38.63
2023-05-21T15:55:35.057Z,38.61
2023-05-21T15:58:03.915Z,38.45
2023-05-21T16:00:31.969Z,38.00
2023-05-21T16:03:00.053Z,38.97
2023-05-21T16:05:28.126Z,36.97
2023-05-21T16:07:55.995Z,39.07
2023-05-21T16:10:24.071Z,39.95
2023-05-21T16:12:52.033Z,38.45
2023-05-21T16:15:19.993Z,39.61
2023-05-21T16:17:48.121Z,39.34
2023-05-21T16:20:16.445Z,39.68
2023-05-21T16:22:44.602Z,39.11
2023-05-21T16:25:13.141Z,39.90
2023-05-21T16:27:41.178Z,40.01
2023-05-21T16:30:11.934Z,40.55
2023-05-21T16:32:40.337Z,40.81
2023-05-21T16:35:08.537Z,41.19
2023-05-21T16:37:36.466Z,41.30
2023-05-21T16:40:04.932Z,40.57
2023-05-21T16:42:33.439Z,41.72
2023-05-21T16:45:01.393Z,41.47
2023-05-21T16:47:29.676Z,41.53
2023-05-21T16:49:58.711Z,41.81
2023-05-21T16:52:27.453Z,41.59
2023-05-21T16:54:56.206Z,41.62
2023-05-21T16:57:24.213Z,41.71
2023-05-21T16:59:52.503Z,42.70
2023-05-21T17:02:57.054Z,42.32
2023-05-21T17:05:27.119Z,42.71
2023-05-21T17:07:55.889Z,42.15
2023-05-21T17:10:25.721Z,42.80
2023-05-21T17:12:54.222Z,43.18
2023-05-21T17:15:22.389Z,42.18
2023-05-21T17:17:51.452Z,43.78
2023-05-21T17:20:20.695Z,43.84
2023-05-21T17:22:48.989Z,44.16
2023-05-21T17:25:17.552Z,44.34
2023-05-21T17:27:45.554Z,44.44
2023-05-21T17:30:16.773Z,43.68
2023-05-21T17:32:44.921Z,44.32
2023-05-21T17:35:12.811Z,44.67
2023-05-21T17:37:40.939Z,43.33
2023-05-21T17:40:09.359Z,44.68
2023-05-21T17:42:37.409Z,45.54
2023-05-21T17:45:05.876Z,45.47
2023-05-21T17:47:34.799Z,45.29
2023-05-21T17:50:03.260Z,45.85
2023-05-21T17:52:31.329Z,45.90
2023-05-21T17:54:59.257Z,45.42
2023-05-21T17:57:27.209Z,46.02
2023-05-21T17:59:55.758Z,45.51
2023-05-21T18:02:24.549Z,44.28
2023-05-21T18:04:52.749Z,44.73
2023-05-21T18:07:22.448Z,45.90
2023-05-21T18:09:50.639Z,46.35
2023-05-21T18:12:18.674Z,45.10
2023-05-21T18:14:46.776Z,46.31
2023-05-21T18:17:14.992Z,45.87
2023-05-21T18:19:43.057Z,45.59
2023-05-21T18:22:11.660Z,46.31
2023-05-21T18:24:40.267Z,47.12
2023-05-21T18:27:08.491Z,45.46
2023-05-21T18:29:37.153Z,47.94
2023-05-21T18:32:05.620Z,46.98
2023-05-21T18:34:33.657Z,49.36
2023-05-21T18:37:01.836Z,48.21
2023-05-21T18:39:29.851Z,48.92
2023-05-21T18:42:12.062Z,48.08
2023-05-21T18:44:40.853Z,49.01
2023-05-21T18:47:08.908Z,48.68
2023-05-21T18:49:36.840Z,49.62
2023-05-21T18:52:06.447Z,50.06
2023-05-21T18:54:34.429Z,50.47
2023-05-21T18:57:02.403Z,52.08
2023-05-21T18:59:31.504Z,52.23
2023-05-21T19:01:59.393Z,53.50
2023-05-21T19:04:27.802Z,52.18
2023-05-21T19:06:56.069Z,52.76
2023-05-21T19:09:24.270Z,52.50
2023-05-21T19:11:52.254Z,54.38
2023-05-21T19:14:21.202Z,54.73
2023-05-21T19:16:49.238Z,54.67
2023-05-21T19:19:17.278Z,56.08
2023-05-21T19:21:47.957Z,55.16
2023-05-21T19:24:16.278Z,55.86
2023-05-21T19:26:44.611Z,57.42
2023-05-21T19:29:12.889Z,56.74
2023-05-21T19:31:42.924Z,57.29
2023-05-21T19:34:11.387Z,57.22
2023-05-21T19:36:51.955Z,57.48
2023-05-21T19:39:21.223Z,57.62
2023-05-21T19:41:49.266Z,59.33
2023-05-21T19:44:17.621Z,61.61
2023-05-21T19:46:46.230Z,59.71
2023-05-21T19:49:16.029Z,61.60
2023-05-21T19:51:44.375Z,59.99
2023-05-21T19:54:12.464Z,62.46
2023-05-21T19:56:42.167Z,62.19
2023-05-21T19:59:10.116Z,62.90
2023-05-21T20:01:40.413Z,63.10
2023-05-21T20:04:08.459Z,64.58
2023-05-21T20:06:37.629Z,64.07
2023-05-21T20:09:09.081Z,64.57
2023-05-21T20:11:37.399Z,65.92
2023-05-21T20:14:06.454Z,64.35
2023-05-21T20:16:34.505Z,64.57
2023-05-21T20:19:04.301Z,64.42
2023-05-21T20:21:32.243Z,64.02
2023-05-21T20:24:00.199Z,65.29
2023-05-21T20:26:28.177Z,64.11
2023-05-21T20:28:57.066Z,64.66
2023-05-21T20:31:25.772Z,63.03
2023-05-21T20:33:55.432Z,64.01
2023-05-21T20:36:24.040Z,63.36
2023-05-21T20:38:51.954Z,63.14
2023-05-21T20:41:20.246Z,64.30
2023-05-21T20:43:48.172Z,63.43
2023-05-21T20:46:18.554Z,64.29
2023-05-21T20:48:47.529Z,63.99
2023-05-21T20:51:15.895Z,64.39
2023-05-21T20:53:44.411Z,65.07
2023-05-21T20:56:14.998Z,65.64
2023-05-21T20:58:43.334Z,65.42
2023-05-21T21:01:11.498Z,63.62
2023-05-21T21:03:41.412Z,65.51
2023-05-21T21:06:09.966Z,65.08
2023-05-21T21:08:40.452Z,66.40
2023-05-21T21:11:10.196Z,65.05
2023-05-21T21:13:38.367Z,65.35
2023-05-21T21:16:06.945Z,64.17
2023-05-21T21:18:34.895Z,65.09
2023-05-21T21:21:02.809Z,65.68
2023-05-21T21:23:30.836Z,67.98
2023-05-21T21:25:58.824Z,68.27
2023-05-21T21:28:26.797Z,68.25
2023-05-21T21:30:54.837Z,69.21
2023-05-21T21:33:24.561Z,66.92
2023-05-21T21:35:52.666Z,66.69
2023-05-21T21:38:20.786Z,67.55
2023-05-21T21:40:48.884Z,67.04
2023-05-21T21:43:16.854Z,67.42
2023-05-21T21:45:45.015Z,67.95
2023-05-21T21:48:12.987Z,68.71
2023-05-21T21:50:41.286Z,69.14
2023-05-21T21:53:09.961Z,70.81
2023-05-21T21:55:38.122Z,71.60
2023-05-21T21:58:07.123Z,71.48
2023-05-21T22:00:35.207Z,72.17
2023-05-21T22:03:08.906Z,72.28
2023-05-21T22:05:45.725Z,73.08
2023-05-21T22:08:14.473Z,75.40
2023-05-21T22:10:42.548Z,74.45
2023-05-21T22:14:29.269Z,74.14
2023-05-21T22:17:48.630Z,74.81
2023-05-21T22:20:17.940Z,75.46
2023-05-21T22:22:46.552Z,76.17
2023-05-21T22:25:14.532Z,74.33
2023-05-21T22:27:43.275Z,75.74
2023-05-21T22:30:14.691Z,75.65
2023-05-21T22:32:42.604Z,76.18
2023-05-21T22:35:10.749Z,75.06
2023-05-21T22:37:39.074Z,75.62
2023-05-21T22:40:07.535Z,76.25
2023-05-21T22:42:36.498Z,76.26
2023-05-21T22:45:05.166Z,77.06
2023-05-21T22:47:33.018Z,75.83
2023-05-21T22:50:04.422Z,75.47
2023-05-21T22:52:32.594Z,75.53
2023-05-21T22:55:00.962Z,74.91
2023-05-21T22:57:28.988Z,75.61
2023-05-21T22:59:56.818Z,77.12
2023-05-21T23:02:24.617Z,73.59
2023-05-21T23:04:52.393Z,74.10
2023-05-21T23:07:20.185Z,75.15
2023-05-21T23:10:03.874Z,74.00
2023-05-21T23:12:59.548Z,73.73
2023-05-21T23:15:48.044Z,74.01
2023-05-21T23:18:26.089Z,74.55
2023-05-21T23:20:54.178Z,73.15
2023-05-21T23:23:22.002Z,72.73
2023-05-21T23:25:52.081Z,70.67
2023-05-21T23:28:19.858Z,68.56
2023-05-21T23:30:48.077Z,66.65
2023-05-21T23:33:15.891Z,65.72
2023-05-21T23:35:43.715Z,63.71
2023-05-21T23:38:11.447Z,61.63
2023-05-21T23:40:39.419Z,59.55
2023-05-21T23:43:07.420Z,58.21
2023-05-21T23:45:35.343Z,57.63
2023-05-21T23:48:03.237Z,57.47
2023-05-21T23:50:31.168Z,57.63
2023-05-21T23:52:59.475Z,56.50
2023-05-21T23:55:27.220Z,55.74
2023-05-21T23:57:54.970Z,54.23
